Terminal Aerodrome Forecast
Issued by NWS Greer, SC

Home | Current Version | Previous Version | Text Only | Print | Product List | Glossary On
Versions: 1 2 3 4 5 6 7 8 9 10 11 12 13 14 15 16 17
000
FTUS42 KGSP 281121
TAFAVL
TAF
KAVL 281121Z 2812/2912 25005KT P6SM FEW250
     FM281800 21009G16KT P6SM VCSH BKN040
     FM282100 21009KT P6SM BKN045 PROB30 2821/2903 4SM -TSRA
      OVC025CB
     FM290500 30007KT P6SM SCT060
     FM290800 33007KT P6SM BKN030=

USA.gov is the U.S. government's official web portal to all federal, state and local government web resources and services.